Time;durP1;ratioP1;P1;durP2;ratioP2;P2;SDS_P1;SDS_P2;PMS_P1;PMS_P2;Temp;Humidity;BMP_temperature;BMP_pressure;BME280_temperature;BME280_humidity;BME280_pressure;Samples;Min_cycle;Max_cycle;Signal;HPM_P1;HPM_P2
2022/06/08 00:00:44;;;;;;;8.20;3.17;;;10.50;99.90;;;;;;5015238;28;20449;-86
2022/06/08 00:03:49;;;;;;;4.40;3.50;;;10.50;99.90;;;;;;5015476;28;20407;-86
2022/06/08 00:06:15;;;;;;;7.23;3.13;;;10.50;99.90;;;;;;5015444;28;20975;-88
2022/06/08 00:08:41;;;;;;;6.20;4.30;;;10.50;99.90;;;;;;5015083;28;20415;-89
2022/06/08 00:11:07;;;;;;;4.97;3.33;;;10.50;99.90;;;;;;4997572;28;20414;-85
2022/06/08 00:13:33;;;;;;;4.20;2.93;;;10.50;99.90;;;;;;5014864;28;20192;-86
2022/06/08 00:16:00;;;;;;;5.40;3.43;;;10.40;99.90;;;;;;4997374;28;20416;-85
2022/06/08 00:18:26;;;;;;;5.27;3.87;;;10.40;99.90;;;;;;5014858;28;20202;-85
2022/06/08 00:20:51;;;;;;;5.63;3.10;;;10.40;99.90;;;;;;4997300;28;20414;-86
2022/06/08 00:23:17;;;;;;;6.30;3.67;;;10.40;99.90;;;;;;4996869;28;20211;-84
2022/06/08 00:25:43;;;;;;;5.10;3.70;;;10.30;99.90;;;;;;4996978;28;20175;-85
2022/06/08 00:28:10;;;;;;;5.60;3.30;;;10.20;99.90;;;;;;5014607;28;20187;-86
2022/06/08 00:30:36;;;;;;;6.60;3.00;;;10.20;99.90;;;;;;5014691;28;20620;-86
2022/06/08 00:33:01;;;;;;;5.60;4.20;;;10.10;99.90;;;;;;5014667;28;20463;-84
2022/06/08 00:35:27;;;;;;;5.70;2.90;;;10.10;99.90;;;;;;5014548;28;20169;-84
2022/06/08 00:37:52;;;;;;;8.87;3.70;;;10.10;99.90;;;;;;5014108;28;20164;-86
2022/06/08 00:40:22;;;;;;;4.23;3.10;;;10.10;99.90;;;;;;4996830;28;20590;-85
2022/06/08 00:42:49;;;;;;;3.90;3.37;;;10.20;99.90;;;;;;5014373;28;20168;-85
2022/06/08 00:45:20;;;;;;;4.50;3.50;;;10.30;99.90;;;;;;5014379;28;20437;-85
2022/06/08 00:47:50;;;;;;;5.90;4.07;;;10.20;99.90;;;;;;5014535;28;20406;-85
2022/06/08 00:50:35;;;;;;;4.13;2.57;;;10.20;99.90;;;;;;4996810;28;20423;-85
2022/06/08 00:53:01;;;;;;;4.77;3.33;;;10.20;99.90;;;;;;5014013;28;20402;-85
2022/06/08 00:55:30;;;;;;;5.37;3.03;;;10.10;99.90;;;;;;5014146;28;20415;-83
2022/06/08 00:58:03;;;;;;;5.10;3.57;;;10.40;99.90;;;;;;5014007;28;20450;-85
2022/06/08 01:00:37;;;;;;;6.97;3.63;;;10.20;99.90;;;;;;5014215;28;20419;-86
2022/06/08 01:03:04;;;;;;;4.83;2.90;;;10.20;99.90;;;;;;5013987;28;20413;-86
2022/06/08 01:05:35;;;;;;;4.27;2.70;;;10.20;99.90;;;;;;5013173;28;20418;-85
2022/06/08 01:08:24;;;;;;;5.70;3.17;;;10.10;99.90;;;;;;5013708;28;20907;-85
2022/06/08 01:10:53;;;;;;;5.73;2.80;;;10.10;99.90;;;;;;5014063;28;20503;-85
2022/06/08 01:13:20;;;;;;;4.63;2.87;;;10.00;99.90;;;;;;5014021;28;20414;-85
2022/06/08 01:15:46;;;;;;;5.07;3.93;;;9.90;99.90;;;;;;5013954;28;20415;-85
2022/06/08 01:18:12;;;;;;;4.27;2.83;;;9.90;99.90;;;;;;4996079;28;20470;-86
2022/06/08 01:20:58;;;;;;;3.90;2.40;;;9.80;99.90;;;;;;5013578;28;20171;-85
2022/06/08 01:23:23;;;;;;;4.47;3.40;;;9.80;99.90;;;;;;5013383;28;20176;-86
2022/06/08 01:26:14;;;;;;;4.83;3.13;;;9.80;99.90;;;;;;5013876;28;20419;-84
2022/06/08 01:29:02;;;;;;;5.03;3.03;;;9.70;99.90;;;;;;4996810;28;20635;-85
2022/06/08 01:31:43;;;;;;;4.80;3.63;;;9.70;99.90;;;;;;5012158;28;20604;-86
2022/06/08 01:34:24;;;;;;;4.30;2.70;;;9.70;99.90;;;;;;5012148;28;20504;-84
2022/06/08 01:37:06;;;;;;;5.27;2.70;;;9.80;99.90;;;;;;5013145;28;20414;-85
2022/06/08 01:39:37;;;;;;;3.50;2.17;;;9.70;99.90;;;;;;4995835;28;20482;-85
2022/06/08 01:42:18;;;;;;;4.83;2.90;;;9.60;99.90;;;;;;5013500;28;20469;-85
2022/06/08 01:48:24;;;;;;;5.13;2.50;;;9.60;99.90;;;;;;5032333;28;20473;-84
2022/06/08 01:51:15;;;;;;;2.80;2.50;;;9.60;99.90;;;;;;5031692;28;20419;-85
2022/06/08 01:54:06;;;;;;;4.73;3.00;;;9.60;99.90;;;;;;5032699;28;20422;-86
2022/06/08 01:56:51;;;;;;;5.03;2.67;;;9.60;99.90;;;;;;5015368;28;20418;-85
2022/06/08 01:59:47;;;;;;;4.77;2.73;;;9.50;99.90;;;;;;5015224;28;20481;-86
2022/06/08 02:02:40;;;;;;;5.17;3.17;;;9.50;99.90;;;;;;5032908;28;20411;-85
2022/06/08 02:05:13;;;;;;;3.67;2.67;;;9.50;99.90;;;;;;5015257;28;20423;-85
2022/06/08 02:08:00;;;;;;;4.20;2.73;;;9.40;99.90;;;;;;5014863;28;20414;-86
2022/06/08 02:10:49;;;;;;;2.93;2.63;;;9.30;99.90;;;;;;5015129;28;20417;-85
2022/06/08 02:13:40;;;;;;;4.47;3.90;;;9.30;99.90;;;;;;5032738;28;20413;-85
2022/06/08 02:16:22;;;;;;;5.23;2.80;;;9.30;99.90;;;;;;5034917;28;20413;-84
2022/06/08 02:18:53;;;;;;;4.50;2.93;;;9.30;99.90;;;;;;5036976;28;20828;-85
2022/06/08 02:21:30;;;;;;;5.43;3.70;;;9.30;99.90;;;;;;5019224;28;20472;-84
2022/06/08 02:24:01;;;;;;;4.70;2.80;;;9.20;99.90;;;;;;5036719;28;20521;-84
2022/06/08 02:26:32;;;;;;;4.80;3.10;;;9.20;99.90;;;;;;5037022;28;20420;-84
2022/06/08 02:29:08;;;;;;;5.40;3.07;;;9.20;99.90;;;;;;5036696;28;20416;-83
2022/06/08 02:31:54;;;;;;;4.87;2.50;;;9.20;99.90;;;;;;5018922;28;20473;-85
2022/06/08 02:34:31;;;;;;;3.50;2.93;;;9.20;99.90;;;;;;5036668;28;20443;-84
2022/06/08 02:37:19;;;;;;;4.27;2.67;;;9.10;99.90;;;;;;5018571;28;20451;-83
2022/06/08 02:39:48;;;;;;;5.33;3.10;;;9.10;99.90;;;;;;5018746;28;20905;-85
2022/06/08 02:42:27;;;;;;;5.57;2.90;;;9.10;99.90;;;;;;5036395;28;20453;-86
2022/06/08 02:45:06;;;;;;;3.70;3.13;;;9.20;99.90;;;;;;5036521;28;20856;-86
2022/06/08 02:47:35;;;;;;;4.50;3.50;;;9.10;99.90;;;;;;5018727;28;20408;-86
2022/06/08 02:50:01;;;;;;;5.77;3.33;;;9.00;99.90;;;;;;5036383;28;20447;-86
2022/06/08 02:52:31;;;;;;;3.80;3.23;;;9.00;99.90;;;;;;5036084;28;20871;-85
2022/06/08 02:54:57;;;;;;;4.10;3.37;;;9.10;99.90;;;;;;5036343;28;20463;-85
2022/06/08 02:57:44;;;;;;;5.50;3.47;;;9.10;99.90;;;;;;5036298;28;20808;-83
2022/06/08 03:00:19;;;;;;;4.83;3.23;;;9.10;99.90;;;;;;5018365;28;20477;-84
2022/06/08 03:02:50;;;;;;;5.70;3.87;;;9.10;99.90;;;;;;5018246;28;20424;-84
2022/06/08 03:05:21;;;;;;;7.37;3.80;;;9.30;99.90;;;;;;5036151;28;20458;-84
2022/06/08 03:08:19;;;;;;;5.90;4.90;;;9.50;99.90;;;;;;5035809;28;20410;-85
2022/06/08 03:10:46;;;;;;;4.93;3.90;;;9.40;99.90;;;;;;5018310;28;20458;-84
2022/06/08 03:13:20;;;;;;;7.90;4.47;;;9.40;99.90;;;;;;5035980;28;20501;-84
2022/06/08 03:15:52;;;;;;;6.20;4.80;;;9.60;99.90;;;;;;5035933;28;20420;-84
2022/06/08 03:18:18;;;;;;;6.80;4.37;;;9.60;99.90;;;;;;5035861;28;20468;-83
2022/06/08 03:20:43;;;;;;;5.30;4.23;;;9.60;99.90;;;;;;5018067;28;20440;-85
2022/06/08 03:23:09;;;;;;;6.93;4.30;;;9.60;99.90;;;;;;5017639;28;20175;-85
2022/06/08 03:25:36;;;;;;;5.93;3.40;;;9.50;99.90;;;;;;5035759;28;20526;-84
2022/06/08 03:28:01;;;;;;;5.40;4.33;;;9.50;99.90;;;;;;5034574;28;20933;-85
2022/06/08 03:30:28;;;;;;;4.27;3.87;;;9.50;99.90;;;;;;5035538;28;20406;-83
2022/06/08 03:32:56;;;;;;;5.23;4.33;;;9.50;99.90;;;;;;5035604;28;20230;-84
2022/06/08 03:35:21;;;;;;;5.50;4.37;;;9.40;99.90;;;;;;5035520;28;20411;-83
2022/06/08 03:37:47;;;;;;;5.30;4.13;;;9.40;99.90;;;;;;5034993;28;20469;-83
2022/06/08 03:40:14;;;;;;;8.33;4.03;;;9.30;99.90;;;;;;5035298;28;20207;-83
2022/06/08 03:42:40;;;;;;;5.60;4.10;;;9.30;99.90;;;;;;5017617;28;20460;-83
2022/06/08 03:45:09;;;;;;;4.40;3.10;;;9.30;99.90;;;;;;5035454;28;21032;-83
2022/06/08 03:47:47;;;;;;;5.40;4.30;;;9.40;99.90;;;;;;5035386;28;20172;-83
2022/06/08 03:50:17;;;;;;;5.90;4.00;;;9.40;99.90;;;;;;5017328;28;20496;-84
2022/06/08 03:52:47;;;;;;;7.40;5.63;;;9.60;99.90;;;;;;5034849;28;20415;-83
2022/06/08 03:55:15;;;;;;;11.90;6.10;;;9.90;99.90;;;;;;5035065;28;20425;-83
2022/06/08 03:57:45;;;;;;;6.80;5.80;;;9.90;99.90;;;;;;5017409;28;20452;-83
2022/06/08 04:00:12;;;;;;;7.83;6.23;;;10.00;99.90;;;;;;5017160;28;20477;-83
2022/06/08 04:02:38;;;;;;;9.10;6.50;;;10.10;99.90;;;;;;5035065;28;20409;-83
2022/06/08 04:05:04;;;;;;;11.27;7.10;;;10.20;99.90;;;;;;5017322;28;20496;-84
2022/06/08 04:07:30;;;;;;;9.27;7.30;;;10.30;99.90;;;;;;5016892;28;20231;-84
2022/06/08 04:09:55;;;;;;;9.13;6.40;;;10.30;99.90;;;;;;5034796;28;20978;-84
2022/06/08 04:12:22;;;;;;;10.73;8.07;;;10.40;99.90;;;;;;5016969;28;20177;-84
2022/06/08 04:14:49;;;;;;;11.13;7.37;;;10.50;99.90;;;;;;5017105;28;20170;-87
2022/06/08 04:17:14;;;;;;;12.13;8.07;;;10.50;99.90;;;;;;5034987;28;20835;-89
2022/06/08 04:19:40;;;;;;;11.17;7.13;;;10.70;99.90;;;;;;5034662;28;20449;-85
2022/06/08 04:22:06;;;;;;;12.30;8.07;;;10.80;99.90;;;;;;5034363;28;20175;-87
2022/06/08 04:24:31;;;;;;;8.67;7.17;;;10.90;99.90;;;;;;5034479;28;20198;-85
2022/06/08 04:26:57;;;;;;;11.30;7.50;;;11.10;99.90;;;;;;5034673;28;20197;-88
2022/06/08 04:29:22;;;;;;;11.00;7.20;;;11.30;99.90;;;;;;5034530;28;20290;-86
2022/06/08 04:31:51;;;;;;;10.43;8.33;;;;;;;;;;5034453;28;20224;-87
2022/06/08 04:34:18;;;;;;;13.73;6.90;;;11.50;99.90;;;;;;5034655;28;20172;-86
2022/06/08 04:36:44;;;;;;;11.00;6.27;;;11.70;99.90;;;;;;5034282;28;20773;-88
2022/06/08 04:39:11;;;;;;;6.90;5.90;;;11.80;99.90;;;;;;5034392;28;20496;-85
2022/06/08 04:41:37;;;;;;;7.60;6.53;;;12.00;99.90;;;;;;5016918;28;20171;-86
2022/06/08 04:44:04;;;;;;;8.10;5.87;;;;;;;;;;5034388;28;20825;-85
2022/06/08 04:46:30;;;;;;;8.13;5.93;;;12.00;99.90;;;;;;5034365;28;20230;-83
2022/06/08 04:48:56;;;;;;;8.43;5.73;;;12.00;99.90;;;;;;5034127;28;20481;-85
2022/06/08 04:51:22;;;;;;;8.40;6.60;;;12.00;99.90;;;;;;5033786;28;20418;-85
2022/06/08 04:53:47;;;;;;;11.07;6.60;;;12.00;99.90;;;;;;5033941;28;20254;-85
2022/06/08 04:56:13;;;;;;;11.23;5.93;;;12.00;99.90;;;;;;5034105;28;20184;-84
2022/06/08 04:58:39;;;;;;;6.80;5.63;;;12.00;99.90;;;;;;5034158;28;20203;-84
2022/06/08 05:01:05;;;;;;;5.37;4.13;;;12.40;99.90;;;;;;5016722;28;20423;-83
2022/06/08 05:03:31;;;;;;;6.90;4.90;;;13.20;99.90;;;;;;5034141;28;20180;-84
2022/06/08 05:05:59;;;;;;;8.13;5.37;;;13.30;99.90;;;;;;5033952;28;20465;-85
2022/06/08 05:08:25;;;;;;;7.87;6.53;;;13.20;99.90;;;;;;5033653;28;20565;-84
2022/06/08 05:11:04;;;;;;;8.00;6.00;;;13.00;99.90;;;;;;5016140;28;20421;-87
2022/06/08 05:13:30;;;;;;;9.40;5.70;;;12.90;99.90;;;;;;5016251;28;20474;-86
2022/06/08 05:15:56;;;;;;;8.00;5.57;;;12.80;99.90;;;;;;5033642;28;20455;-88
2022/06/08 05:18:22;;;;;;;7.57;5.50;;;12.70;99.90;;;;;;5015971;28;20447;-87
2022/06/08 05:20:49;;;;;;;10.00;5.83;;;12.60;99.90;;;;;;5015954;28;20207;-87
2022/06/08 05:23:20;;;;;;;8.23;5.37;;;12.60;99.90;;;;;;5033842;28;20804;-86
2022/06/08 05:25:46;;;;;;;7.93;5.57;;;12.60;99.90;;;;;;5016162;28;20420;-89
2022/06/08 05:28:15;;;;;;;8.80;6.13;;;12.60;99.90;;;;;;5015869;28;20470;-85
2022/06/08 05:30:41;;;;;;;7.03;6.03;;;12.70;99.90;;;;;;5015999;28;20512;-86
2022/06/08 05:33:08;;;;;;;10.57;6.90;;;12.70;99.90;;;;;;5033267;28;20823;-86
2022/06/08 05:35:34;;;;;;;9.33;6.73;;;12.70;99.90;;;;;;5030359;28;20430;-85
2022/06/08 05:37:59;;;;;;;10.90;7.17;;;12.80;99.90;;;;;;5033033;28;20416;-85
2022/06/08 05:40:28;;;;;;;11.37;7.70;;;12.90;99.90;;;;;;5033125;28;20428;-85
2022/06/08 05:42:54;;;;;;;7.67;6.87;;;13.00;99.90;;;;;;5015173;28;20585;-86
2022/06/08 05:45:26;;;;;;;8.57;7.63;;;13.10;99.90;;;;;;5032849;28;20435;-86
2022/06/08 05:47:51;;;;;;;9.60;7.40;;;13.20;99.90;;;;;;5032916;28;20419;-85
2022/06/08 05:50:18;;;;;;;9.53;6.23;;;13.20;99.90;;;;;;5032476;28;20468;-88
2022/06/08 05:52:44;;;;;;;8.53;6.57;;;13.20;99.90;;;;;;5015009;28;20178;-86
2022/06/08 05:55:14;;;;;;;12.97;8.57;;;13.20;99.90;;;;;;5015132;28;20428;-85
2022/06/08 05:57:40;;;;;;;12.73;7.40;;;13.20;99.90;;;;;;5032758;28;20172;-85
2022/06/08 06:00:09;;;;;;;11.90;8.67;;;13.10;99.90;;;;;;5032854;28;20776;-85
2022/06/08 06:02:34;;;;;;;10.17;7.37;;;13.10;99.90;;;;;;5032691;28;20426;-85
2022/06/08 06:05:00;;;;;;;12.90;8.50;;;13.30;99.90;;;;;;5032845;28;20492;-85
2022/06/08 06:07:26;;;;;;;10.23;8.20;;;13.50;99.90;;;;;;5032454;28;20278;-85
2022/06/08 06:09:51;;;;;;;8.23;6.70;;;13.70;99.90;;;;;;5032826;28;20275;-84
2022/06/08 06:12:17;;;;;;;10.33;7.53;;;13.90;99.90;;;;;;5032670;28;20201;-83
2022/06/08 06:14:43;;;;;;;12.20;7.23;;;14.00;99.90;;;;;;5032603;28;20232;-84
2022/06/08 06:17:08;;;;;;;10.20;6.93;;;14.00;99.90;;;;;;5032640;28;20599;-83
2022/06/08 06:19:34;;;;;;;12.50;8.00;;;14.20;99.90;;;;;;5015069;28;20242;-83
2022/06/08 06:22:01;;;;;;;8.73;6.97;;;14.70;99.90;;;;;;5032477;28;20179;-86
2022/06/08 06:24:27;;;;;;;7.57;6.03;;;14.60;99.90;;;;;;5032740;28;20228;-87
2022/06/08 06:26:53;;;;;;;8.57;6.07;;;14.50;99.90;;;;;;5014676;28;20413;-85
2022/06/08 06:29:18;;;;;;;9.87;7.10;;;14.40;99.90;;;;;;5032512;28;20709;-85
2022/06/08 06:31:53;;;;;;;8.20;7.37;;;14.50;99.90;;;;;;5032345;28;20564;-85
2022/06/08 06:34:22;;;;;;;10.80;6.10;;;14.80;99.90;;;;;;5021792;28;20195;-85
2022/06/08 06:36:48;;;;;;;7.33;6.53;;;15.00;99.90;;;;;;4994757;28;20427;-85
2022/06/08 06:39:14;;;;;;;7.27;6.00;;;15.30;99.90;;;;;;5012833;28;20788;-84
2022/06/08 06:41:41;;;;;;;9.07;5.80;;;15.70;99.90;;;;;;4995019;28;20428;-85
2022/06/08 06:44:06;;;;;;;10.10;5.00;;;16.10;99.90;;;;;;4995093;28;21015;-86
2022/06/08 06:46:32;;;;;;;7.10;5.67;;;16.20;1.00;;;;;;5012861;28;20448;-85
2022/06/08 06:48:58;;;;;;;8.67;4.90;;;16.30;25.00;;;;;;4994930;28;20219;-84
2022/06/08 06:51:23;;;;;;;8.17;4.60;;;16.20;77.00;;;;;;5012350;28;20455;-85
2022/06/08 06:53:49;;;;;;;5.60;4.40;;;15.70;37.70;;;;;;5012738;28;20187;-85
2022/06/08 06:56:14;;;;;;;7.07;4.50;;;15.30;99.90;;;;;;5012602;28;20189;-86
2022/06/08 06:58:40;;;;;;;5.10;4.27;;;15.00;99.90;;;;;;5012658;28;20228;-84
2022/06/08 07:01:06;;;;;;;7.03;4.53;;;14.80;99.90;;;;;;5012809;28;20172;-85
2022/06/08 07:03:33;;;;;;;6.53;5.37;;;14.60;99.90;;;;;;4998552;28;20180;-86
2022/06/08 07:05:58;;;;;;;7.80;5.27;;;14.50;99.90;;;;;;4998314;28;20560;-85
2022/06/08 07:08:24;;;;;;;9.00;4.73;;;14.40;99.90;;;;;;4998546;28;20982;-85
2022/06/08 07:13:34;;;;;;;8.37;5.17;;;14.40;99.90;;;;;;5016038;28;20466;-85
2022/06/08 07:16:00;;;;;;;6.43;4.60;;;14.50;99.90;;;;;;5016011;28;20482;-85
2022/06/08 07:18:26;;;;;;;6.57;5.17;;;14.70;99.90;;;;;;5016021;28;20412;-86
2022/06/08 07:20:52;;;;;;;7.03;5.83;;;14.70;99.90;;;;;;4998057;28;20176;-84
2022/06/08 07:23:18;;;;;;;8.07;4.67;;;14.80;99.90;;;;;;5015941;28;20421;-84
2022/06/08 07:25:43;;;;;;;10.80;5.90;;;14.90;99.90;;;;;;5015847;28;20413;-85
2022/06/08 07:28:09;;;;;;;6.17;4.87;;;15.00;99.90;;;;;;5015665;28;20177;-85
2022/06/08 07:30:36;;;;;;;9.73;4.80;;;15.30;99.90;;;;;;5015674;28;20697;-85
2022/06/08 07:33:02;;;;;;;8.60;5.93;;;15.60;99.90;;;;;;5015832;28;20174;-86
2022/06/08 07:35:28;;;;;;;7.20;4.37;;;15.70;99.90;;;;;;4998180;28;20544;-84
2022/06/08 07:37:53;;;;;;;5.50;4.20;;;16.00;99.90;;;;;;5015269;28;20514;-85
2022/06/08 07:40:19;;;;;;;7.83;4.30;;;15.90;99.90;;;;;;5015508;28;20682;-85
2022/06/08 07:42:44;;;;;;;6.77;3.67;;;15.90;99.90;;;;;;4998057;28;20173;-84
2022/06/08 07:45:13;;;;;;;5.87;3.13;;;15.80;1.00;;;;;;5013640;28;20193;-85
2022/06/08 07:49:36;;;;;;;7.73;3.57;;;16.00;51.90;;;;;;5013882;28;20261;-83
2022/06/08 07:50:32;;;;;;;7.70;4.90;;;16.10;1.00;;;;;;5013671;28;20425;-86
2022/06/08 07:52:57;;;;;;;6.70;3.67;;;15.90;1.00;;;;;;4997279;28;20434;-85
2022/06/08 07:55:23;;;;;;;6.07;3.30;;;15.90;22.50;;;;;;5015281;28;20174;-87
2022/06/08 07:57:51;;;;;;;5.00;4.30;;;15.90;1.00;;;;;;4997601;28;20183;-86
2022/06/08 08:00:18;;;;;;;6.70;4.87;;;15.80;19.80;;;;;;5015273;28;20180;-86
2022/06/08 08:02:44;;;;;;;6.70;3.67;;;15.90;99.90;;;;;;4997170;28;20578;-87
2022/06/08 08:05:12;;;;;;;6.90;4.73;;;16.00;99.90;;;;;;5015120;28;20512;-86
2022/06/08 08:07:39;;;;;;;6.47;3.90;;;16.00;99.90;;;;;;5013978;28;20175;-84
2022/06/08 08:10:07;;;;;;;6.43;4.37;;;16.10;99.90;;;;;;5013980;28;20477;-86
2022/06/08 08:12:33;;;;;;;6.03;4.30;;;16.20;58.90;;;;;;4996497;28;20943;-87
2022/06/08 08:14:58;;;;;;;6.83;3.67;;;16.40;1.00;;;;;;5014363;28;20443;-86
2022/06/08 08:17:24;;;;;;;6.13;3.87;;;16.90;1.00;;;;;;5018592;28;20644;-86
2022/06/08 08:19:49;;;;;;;6.50;3.93;;;17.30;1.00;;;;;;4997910;28;20180;-86
2022/06/08 08:22:16;;;;;;;6.83;4.30;;;17.80;99.90;;;;;;5015828;28;20647;-87
2022/06/08 08:24:42;;;;;;;7.27;4.80;;;18.90;1.00;;;;;;5015926;28;20526;-87
2022/06/08 08:27:07;;;;;;;6.83;3.97;;;20.10;48.40;;;;;;5015272;28;20414;-84
2022/06/08 08:29:33;;;;;;;6.83;3.67;;;20.00;1.00;;;;;;5014721;28;20223;-86
2022/06/08 08:31:59;;;;;;;6.00;3.17;;;19.70;99.90;;;;;;5014613;28;20299;-86
2022/06/08 08:34:25;;;;;;;6.80;4.03;;;;;;;;;;4996962;28;20696;-86
2022/06/08 08:36:51;;;;;;;5.70;3.40;;;20.40;1.00;;;;;;5014131;28;20199;-88
2022/06/08 08:39:17;;;;;;;5.80;3.90;;;20.70;1.00;;;;;;5014874;28;20421;-86
2022/06/08 08:44:28;;;;;;;7.57;4.97;;;22.40;1.00;;;;;;5014443;28;20540;-86
2022/06/08 08:47:13;;;;;;;4.80;3.70;;;23.90;99.90;;;;;;5014397;28;20414;-85
2022/06/08 08:49:51;;;;;;;4.20;3.13;;;24.00;99.90;;;;;;5014222;28;20215;-85
2022/06/08 08:52:38;;;;;;;5.37;3.90;;;25.70;99.90;;;;;;5013980;28;20413;-87
2022/06/08 08:55:17;;;;;;;5.03;3.37;;;26.10;99.90;;;;;;4996554;28;20462;-85
2022/06/08 08:57:56;;;;;;;7.57;5.07;;;26.10;99.90;;;;;;5021692;28;20423;-87
2022/06/08 09:00:31;;;;;;;6.10;5.27;;;26.30;99.90;;;;;;5037558;28;20417;-86
2022/06/08 09:03:16;;;;;;;7.03;4.37;;;25.70;99.90;;;;;;5033436;28;20408;-85
2022/06/08 09:05:44;;;;;;;5.60;4.20;;;25.80;99.90;;;;;;5033340;28;20612;-85
2022/06/08 09:08:15;;;;;;;6.07;5.47;;;26.40;99.90;;;;;;5033258;28;20495;-85
2022/06/08 09:10:41;;;;;;;6.20;5.60;;;25.80;99.90;;;;;;5027523;28;20787;-86
2022/06/08 09:13:15;;;;;;;7.20;6.00;;;26.10;99.90;;;;;;5033348;28;20409;-87
2022/06/08 09:15:56;;;;;;;5.10;4.60;;;26.20;99.90;;;;;;5033496;28;20831;-88
2022/06/08 09:18:39;;;;;;;8.20;6.20;;;26.30;99.90;;;;;;5033415;28;20412;-89
2022/06/08 09:21:37;;;;;;;6.07;5.53;;;26.40;99.90;;;;;;5015012;28;21088;-88
2022/06/08 09:24:20;;;;;;;6.53;5.90;;;26.60;99.90;;;;;;4988155;28;20421;-87
2022/06/08 09:26:47;;;;;;;8.90;7.00;;;26.70;99.90;;;;;;5031343;28;20412;-87
2022/06/08 09:29:23;;;;;;;6.00;5.50;;;26.90;99.90;;;;;;5031464;28;20475;-87
2022/06/08 09:31:50;;;;;;;6.67;6.07;;;26.40;99.90;;;;;;5032592;28;20457;-88
2022/06/08 09:34:29;;;;;;;6.57;5.93;;;26.20;99.90;;;;;;5015759;28;20413;-88
2022/06/08 09:37:04;;;;;;;7.70;7.10;;;25.90;90.70;;;;;;5033123;28;20478;-88
2022/06/08 09:39:29;;;;;;;7.50;6.80;;;24.80;97.10;;;;;;5033345;28;20468;-87
2022/06/08 09:41:55;;;;;;;7.10;6.40;;;23.20;99.90;;;;;;5033438;28;20815;-87
2022/06/08 09:44:36;;;;;;;7.50;6.80;;;22.20;99.90;;;;;;5033185;28;20643;-88
2022/06/08 09:51:26;;;;;;;7.30;6.60;;;21.70;99.90;;;;;;5032939;28;20419;-88
2022/06/08 09:54:45;;;;;;;7.97;7.10;;;21.90;99.90;;;;;;5033039;28;20428;-89
2022/06/08 09:57:32;;;;;;;9.93;9.00;;;22.10;99.90;;;;;;4952589;29;20440;-88
2022/06/08 10:00:09;;;;;;;10.70;9.70;;;24.20;99.90;;;;;;5032691;28;20467;-87
2022/06/08 10:03:00;;;;;;;8.77;7.97;;;25.10;99.90;;;;;;5015060;28;20421;-87
2022/06/08 10:05:28;;;;;;;8.83;7.97;;;25.60;99.90;;;;;;5031705;28;20413;-87
2022/06/08 10:08:22;;;;;;;9.90;9.00;;;25.90;99.90;;;;;;5033125;28;20765;-88
2022/06/08 10:11:34;;;;;;;11.20;10.07;;;25.80;99.90;;;;;;5032260;28;20470;-89
2022/06/08 10:14:02;;;;;;;8.87;8.07;;;25.40;99.90;;;;;;5032737;28;20466;-89
2022/06/08 10:16:33;;;;;;;10.73;9.70;;;26.00;99.90;;;;;;5033437;28;20424;-89
2022/06/08 10:19:07;;;;;;;9.00;8.10;;;25.60;99.90;;;;;;5033003;28;20465;-89
2022/06/08 10:21:41;;;;;;;8.57;7.83;;;25.60;99.90;;;;;;5032779;28;20905;-90
2022/06/08 10:24:15;;;;;;;10.70;9.70;;;25.90;99.90;;;;;;5015876;28;20417;-89
2022/06/08 10:26:52;;;;;;;9.47;8.67;;;26.00;99.90;;;;;;5032890;28;20419;-90
2022/06/08 10:29:51;;;;;;;10.20;9.30;;;26.00;99.90;;;;;;5032714;28;20508;-87
2022/06/08 10:32:43;;;;;;;9.47;8.60;;;26.60;99.90;;;;;;5032601;28;20457;-89
2022/06/08 10:35:41;;;;;;;9.30;8.50;;;25.50;99.90;;;;;;5032656;28;20414;-90
2022/06/08 10:38:29;;;;;;;10.40;9.37;;;24.90;99.90;;;;;;5036719;28;20440;-90
2022/06/08 10:44:23;;;;;;;9.70;7.97;;;25.40;99.90;;;;;;5001512;28;20439;-88
2022/06/08 10:46:49;;;;;;;8.60;7.83;;;25.80;99.90;;;;;;5037994;28;20411;-88
2022/06/08 10:49:44;;;;;;;9.47;8.30;;;26.00;99.90;;;;;;5036612;28;20508;-87
2022/06/08 10:52:13;;;;;;;9.47;8.57;;;26.20;99.90;;;;;;5036121;28;20532;-86
2022/06/08 10:54:54;;;;;;;10.57;9.63;;;26.00;99.90;;;;;;5036241;28;20415;-89
2022/06/08 10:57:47;;;;;;;9.97;8.90;;;25.80;99.90;;;;;;5036257;28;20413;-87
2022/06/08 11:00:41;;;;;;;9.23;8.30;;;26.00;99.90;;;;;;5036262;28;20538;-88
2022/06/08 11:03:45;;;;;;;9.83;8.80;;;26.20;99.90;;;;;;5036150;28;20416;-87
2022/06/08 11:06:54;;;;;;;8.37;7.57;;;25.00;99.90;;;;;;5036109;28;20471;-88
2022/06/08 11:09:32;;;;;;;9.70;8.70;;;25.20;99.90;;;;;;5036005;28;20411;-88
2022/06/08 11:12:33;;;;;;;9.33;8.53;;;24.80;99.90;;;;;;5035785;28;20409;-84
2022/06/08 11:15:10;;;;;;;9.93;8.40;;;24.80;99.90;;;;;;5035826;28;20420;-85
2022/06/08 11:17:48;;;;;;;8.40;7.50;;;24.60;99.90;;;;;;5035771;28;20467;-87
2022/06/08 11:20:27;;;;;;;7.47;6.77;;;24.60;99.90;;;;;;5017609;28;20839;-85
2022/06/08 11:23:16;;;;;;;6.83;6.17;;;25.50;99.90;;;;;;5017994;28;20420;-88
2022/06/08 11:25:52;;;;;;;7.63;6.87;;;25.20;99.90;;;;;;5035748;28;20409;-85
2022/06/08 11:28:34;;;;;;;9.47;7.13;;;25.20;99.90;;;;;;5035788;28;20881;-84
2022/06/08 11:31:09;;;;;;;8.00;7.20;;;25.20;99.90;;;;;;5017694;28;20456;-86
2022/06/08 11:33:53;;;;;;;7.20;6.60;;;24.90;99.90;;;;;;5035595;28;20504;-85
2022/06/08 11:36:35;;;;;;;8.90;8.10;;;25.00;99.90;;;;;;5017679;28;20447;-85
2022/06/08 11:39:15;;;;;;;8.30;7.60;;;24.80;99.90;;;;;;5035581;28;20492;-86
2022/06/08 11:41:42;;;;;;;7.87;7.17;;;25.10;99.90;;;;;;5035662;28;20512;-86
2022/06/08 11:44:18;;;;;;;8.93;7.13;;;24.60;99.90;;;;;;5035596;28;20424;-89
2022/06/08 11:47:05;;;;;;;9.50;8.10;;;24.00;99.90;;;;;;5017851;28;20424;-89
2022/06/08 11:49:36;;;;;;;8.80;7.90;;;25.60;99.90;;;;;;5034591;28;20445;-88
2022/06/08 11:52:29;;;;;;;8.10;7.30;;;25.00;99.90;;;;;;5035220;28;20405;-90
2022/06/08 11:55:10;;;;;;;8.57;7.60;;;24.40;99.90;;;;;;5035590;28;20413;-88
2022/06/08 11:57:42;;;;;;;6.63;6.03;;;23.70;99.90;;;;;;5035320;28;20463;-90
2022/06/08 12:00:29;;;;;;;7.10;6.40;;;23.50;99.90;;;;;;5034952;28;20487;-90
2022/06/08 12:03:03;;;;;;;5.70;5.20;;;23.10;99.90;;;;;;5022441;28;20449;-90
2022/06/08 12:05:31;;;;;;;6.43;5.93;;;22.90;99.90;;;;;;5034830;28;20401;-89
2022/06/08 12:08:07;;;;;;;6.27;5.40;;;22.70;99.90;;;;;;5035215;28;20409;-88
2022/06/08 12:10:34;;;;;;;6.77;5.90;;;22.90;99.90;;;;;;5035261;28;20458;-88
2022/06/08 12:13:00;;;;;;;6.23;5.63;;;23.00;99.90;;;;;;5035352;28;20478;-89
2022/06/08 12:15:48;;;;;;;6.83;5.73;;;23.40;99.90;;;;;;5035050;28;20496;-90
2022/06/08 12:18:31;;;;;;;6.20;5.60;;;24.00;99.90;;;;;;5017526;28;20631;-88
2022/06/08 12:21:24;;;;;;;5.40;4.90;;;24.10;99.90;;;;;;5017075;28;20475;-87
2022/06/08 12:24:04;;;;;;;6.30;5.73;;;24.20;99.90;;;;;;5035189;28;20421;-89
2022/06/08 12:26:50;;;;;;;6.03;5.07;;;24.20;99.90;;;;;;5034774;28;20444;-87
2022/06/08 12:29:52;;;;;;;5.57;5.03;;;24.30;99.90;;;;;;5035028;28;20417;-90
2022/06/08 12:32:28;;;;;;;5.70;5.20;;;24.50;99.90;;;;;;5034685;28;20465;-89
2022/06/08 12:35:06;;;;;;;5.90;5.03;;;25.10;99.90;;;;;;5034464;28;20436;-89
2022/06/08 12:37:36;;;;;;;5.30;4.80;;;25.10;96.50;;;;;;5017187;28;20466;-88
2022/06/08 12:40:17;;;;;;;5.70;4.10;;;24.40;99.90;;;;;;5034430;28;20464;-88
2022/06/08 12:42:51;;;;;;;5.17;3.87;;;24.00;95.70;;;;;;5034380;28;20511;-88
2022/06/08 12:45:33;;;;;;;4.40;4.00;;;24.40;99.90;;;;;;5033867;28;20435;-88
2022/06/08 12:48:17;;;;;;;4.33;3.50;;;24.80;99.90;;;;;;5033094;28;20434;-92
2022/06/08 12:50:43;;;;;;;3.63;3.30;;;24.60;99.90;;;;;;5034124;28;20954;-87
2022/06/08 12:53:09;;;;;;;4.30;3.63;;;24.60;96.30;;;;;;5033701;28;20405;-87
2022/06/08 12:55:36;;;;;;;4.00;3.70;;;25.80;99.90;;;;;;5034201;28;20183;-93
2022/06/08 12:58:02;;;;;;;4.70;3.97;;;26.50;99.90;;;;;;5033621;28;20166;-93
2022/06/08 13:00:30;;;;;;;4.40;4.00;;;26.50;93.80;;;;;;5033306;28;20527;-92
2022/06/08 13:02:58;;;;;;;4.10;3.80;;;26.70;96.80;;;;;;5015730;28;20413;-88
2022/06/08 13:05:31;;;;;;;4.00;3.60;;;26.80;84.60;;;;;;5032279;28;20421;-88
2022/06/08 13:07:58;;;;;;;5.93;4.50;;;26.60;84.80;;;;;;5014764;28;20425;-88
2022/06/08 13:10:26;;;;;;;4.03;3.70;;;26.40;73.20;;;;;;5014670;28;20424;-86
2022/06/08 13:12:58;;;;;;;4.20;3.80;;;26.60;82.60;;;;;;5032144;28;20417;-87
2022/06/08 13:15:30;;;;;;;4.80;4.40;;;26.60;92.60;;;;;;5014703;28;20475;-85
2022/06/08 13:17:56;;;;;;;3.50;3.20;;;26.80;79.40;;;;;;5014657;28;20471;-87
2022/06/08 13:20:33;;;;;;;4.53;4.10;;;25.80;85.50;;;;;;5013985;28;20482;-87
2022/06/08 13:22:59;;;;;;;3.60;3.30;;;25.80;87.80;;;;;;5014182;28;20420;-87
2022/06/08 13:25:25;;;;;;;5.07;4.57;;;25.80;81.10;;;;;;5032088;28;20414;-87
2022/06/08 13:27:53;;;;;;;3.83;3.53;;;25.80;69.80;;;;;;5014875;28;20175;-88
2022/06/08 13:30:28;;;;;;;4.63;4.33;;;26.20;84.80;;;;;;5032393;28;20512;-87
2022/06/08 13:32:56;;;;;;;4.70;4.23;;;26.40;67.20;;;;;;5014573;28;20421;-87